createdAt,value
2018-07-30T00:00:33.072Z,22.4
2018-07-30T00:05:33.130Z,22.2
2018-07-30T00:10:32.627Z,22.2
2018-07-30T00:15:33.474Z,22.1
2018-07-30T00:20:33.495Z,22.1
2018-07-30T00:25:33.309Z,22
2018-07-30T00:30:33.068Z,22
2018-07-30T00:35:32.846Z,21.9
2018-07-30T00:40:32.653Z,21.9
2018-07-30T00:45:33.421Z,21.8
2018-07-30T00:50:33.237Z,21.8
2018-07-30T00:55:32.767Z,21.7
2018-07-30T01:00:33.162Z,21.7
2018-07-30T01:05:33.238Z,21.6
2018-07-30T01:10:33.240Z,21.6
2018-07-30T01:15:32.997Z,21.5
2018-07-30T01:20:32.749Z,21.5
2018-07-30T01:25:32.634Z,21.4
2018-07-30T01:30:33.475Z,21.4
2018-07-30T01:35:33.335Z,21.3
2018-07-30T01:40:33.173Z,21.3
2018-07-30T01:45:32.934Z,21.2
2018-07-30T01:50:32.716Z,21.2
2018-07-30T01:55:33.597Z,21.1
2018-07-30T02:00:33.468Z,21.1
2018-07-30T02:05:33.550Z,21.1
2018-07-30T02:10:32.843Z,21.1
2018-07-30T02:15:32.688Z,21
2018-07-30T02:20:33.431Z,21
2018-07-30T02:25:33.489Z,20.9
2018-07-30T02:30:33.258Z,20.9
2018-07-30T02:35:33.025Z,20.9
2018-07-30T02:40:32.846Z,20.9
2018-07-30T02:45:33.619Z,20.8
2018-07-30T02:50:33.468Z,20.8
2018-07-30T02:55:33.601Z,20.8
2018-07-30T03:00:33.468Z,20.8
2018-07-30T03:05:33.326Z,20.7
2018-07-30T03:10:33.429Z,20.7
2018-07-30T03:15:33.256Z,20.7
2018-07-30T03:20:33.040Z,20.7
2018-07-30T03:25:32.881Z,20.6
2018-07-30T03:30:33.630Z,20.6
2018-07-30T03:35:33.517Z,20.6
2018-07-30T03:40:33.339Z,20.6
2018-07-30T03:45:33.130Z,20.6
2018-07-30T03:50:32.994Z,20.6
2018-07-30T03:55:33.420Z,20.6
2018-07-30T04:00:33.334Z,20.6
2018-07-30T04:05:33.176Z,20.6
2018-07-30T04:10:33.072Z,20.6
2018-07-30T04:15:32.953Z,20.5
2018-07-30T04:20:33.732Z,20.5
2018-07-30T04:25:33.705Z,20.4
2018-07-30T04:30:33.526Z,20.4
2018-07-30T04:35:33.868Z,20.4
2018-07-30T04:40:33.771Z,20.4
2018-07-30T04:45:33.622Z,20.5
2018-07-30T04:50:33.344Z,20.5
2018-07-30T04:55:33.111Z,20.6
2018-07-30T05:00:32.934Z,20.6
2018-07-30T05:05:33.268Z,20.7
2018-07-30T05:10:32.862Z,20.7
2018-07-30T05:15:33.431Z,20.9
2018-07-30T05:20:33.259Z,20.9
2018-07-30T05:25:33.016Z,21.1
2018-07-30T05:30:32.908Z,21.1
2018-07-30T05:35:33.716Z,21.2
2018-07-30T05:40:33.501Z,21.2
2018-07-30T05:45:33.262Z,21.4
2018-07-30T05:50:33.356Z,21.4
2018-07-30T05:55:33.213Z,21.7
2018-07-30T06:00:32.937Z,21.7
2018-07-30T06:05:33.428Z,21.9
2018-07-30T06:10:33.175Z,21.9
2018-07-30T06:15:32.981Z,22.3
2018-07-30T06:20:33.789Z,22.3
2018-07-30T06:25:33.587Z,22.6
2018-07-30T06:30:33.401Z,22.6
2018-07-30T06:35:33.544Z,23
2018-07-30T06:40:33.264Z,23
2018-07-30T06:45:33.530Z,23.4
2018-07-30T06:50:33.322Z,23.4
2018-07-30T06:55:33.134Z,23.6
2018-07-30T07:00:33.969Z,23.6
2018-07-30T07:05:33.784Z,23.8
2018-07-30T07:10:33.975Z,23.8
2018-07-30T07:15:33.736Z,24.1
2018-07-30T07:20:33.775Z,24.1
2018-07-30T07:25:33.508Z,24.2
2018-07-30T07:30:33.708Z,24.2
2018-07-30T07:35:33.579Z,24.4
2018-07-30T07:40:33.585Z,24.4
2018-07-30T07:45:33.361Z,24.8
2018-07-30T07:50:33.144Z,24.8
2018-07-30T07:55:33.166Z,26.2
2018-07-30T08:00:33.940Z,26.2
2018-07-30T08:05:33.916Z,26.9
2018-07-30T08:10:33.328Z,26.9
2018-07-30T08:15:33.163Z,26.8
2018-07-30T08:20:34.064Z,26.8
2018-07-30T08:25:33.877Z,26.8
2018-07-30T08:30:33.671Z,26.8
2018-07-30T08:35:33.511Z,27.7
2018-07-30T08:40:33.255Z,27.7
2018-07-30T08:45:34.100Z,29
2018-07-30T08:50:34.030Z,29
2018-07-30T08:55:33.820Z,28.7
2018-07-30T09:00:33.726Z,28.7
2018-07-30T09:05:33.603Z,28.4
2018-07-30T09:10:33.774Z,28.4
2018-07-30T09:15:33.877Z,28.4
2018-07-30T09:20:33.595Z,28.4
2018-07-30T09:25:33.548Z,28.7
2018-07-30T09:30:33.974Z,28.7
2018-07-30T09:35:33.940Z,28.8
2018-07-30T09:40:33.788Z,28.8
2018-07-30T09:45:33.567Z,29.1
2018-07-30T09:50:33.359Z,29.1
2018-07-30T09:55:33.236Z,29.7
2018-07-30T10:00:34.177Z,29.7
2018-07-30T10:05:33.452Z,29.6
2018-07-30T10:10:33.752Z,29.6
2018-07-30T10:15:33.679Z,29.6
2018-07-30T10:20:33.828Z,29.6
2018-07-30T10:25:33.650Z,29.8
2018-07-30T10:30:34.137Z,29.8
2018-07-30T10:35:34.054Z,29.8
2018-07-30T10:40:33.933Z,29.8
2018-07-30T10:45:33.721Z,30.4
2018-07-30T10:50:34.107Z,30.4
2018-07-30T10:55:33.844Z,30.5
2018-07-30T11:00:33.685Z,30.5
2018-07-30T11:05:33.561Z,31.1
2018-07-30T11:10:35.195Z,31.1
2018-07-30T11:15:33.971Z,31.6
2018-07-30T11:20:33.782Z,31.6
2018-07-30T11:25:33.575Z,32
2018-07-30T11:30:33.679Z,32
2018-07-30T11:35:33.553Z,32
2018-07-30T11:40:33.544Z,32
2018-07-30T11:45:33.383Z,32.8
2018-07-30T11:50:34.366Z,32.8
2018-07-30T11:55:33.737Z,33.1
2018-07-30T12:00:33.913Z,33.1
2018-07-30T12:05:34.256Z,32.6
2018-07-30T12:10:34.312Z,32.6
2018-07-30T12:15:34.036Z,32.1
2018-07-30T12:20:34.188Z,32.1
2018-07-30T12:25:33.439Z,31.8
2018-07-30T12:30:33.785Z,31.8
2018-07-30T12:35:34.266Z,32.6
2018-07-30T12:40:34.374Z,32.6
2018-07-30T12:45:34.181Z,33.1
2018-07-30T12:50:34.391Z,33.1
2018-07-30T12:55:34.224Z,33.2
2018-07-30T13:00:34.061Z,33.2
2018-07-30T13:05:33.934Z,32.9
2018-07-30T13:10:33.946Z,32.9
2018-07-30T13:15:33.439Z,33
2018-07-30T13:20:34.377Z,33
2018-07-30T13:25:34.224Z,33.4
2018-07-30T13:30:34.356Z,33.4
2018-07-30T13:35:33.869Z,33.6
2018-07-30T13:40:33.808Z,33.6
2018-07-30T13:45:33.778Z,33.3
2018-07-30T13:50:33.667Z,33.3
2018-07-30T13:55:33.963Z,33.7
2018-07-30T14:00:33.820Z,33.7
2018-07-30T14:05:34.237Z,34
2018-07-30T14:10:34.091Z,34
2018-07-30T14:15:33.689Z,33.3
2018-07-30T14:20:34.512Z,33.3
2018-07-30T14:25:34.391Z,33.3
2018-07-30T14:30:33.773Z,33.3
2018-07-30T14:35:33.783Z,33
2018-07-30T14:40:33.680Z,33
2018-07-30T14:45:34.496Z,33.1
2018-07-30T14:50:34.490Z,33.1
2018-07-30T14:55:34.427Z,33.4
2018-07-30T15:00:34.353Z,33.4
2018-07-30T15:05:34.239Z,33.5
2018-07-30T15:10:34.212Z,33.5
2018-07-30T15:15:33.731Z,33.1
2018-07-30T15:20:34.598Z,33.1
2018-07-30T15:25:33.713Z,33.2
2018-07-30T15:30:34.535Z,33.2
2018-07-30T15:35:34.438Z,33.1
2018-07-30T15:40:34.355Z,33.1
2018-07-30T15:45:34.189Z,32.6
2018-07-30T15:50:34.095Z,32.6
2018-07-30T15:55:33.877Z,32.6
2018-07-30T16:00:33.686Z,32.6
2018-07-30T16:05:34.660Z,32.7
2018-07-30T16:10:34.202Z,32.7
2018-07-30T16:15:34.357Z,32.6
2018-07-30T16:20:34.200Z,32.6
2018-07-30T16:25:34.079Z,32.4
2018-07-30T16:30:33.929Z,32.4
2018-07-30T16:35:33.820Z,32.2
2018-07-30T16:40:33.754Z,32.2
2018-07-30T16:45:34.559Z,32.1
2018-07-30T16:50:34.542Z,32.1
2018-07-30T16:55:34.345Z,31.9
2018-07-30T17:00:34.109Z,31.9
2018-07-30T17:05:33.923Z,31.8
2018-07-30T17:10:34.482Z,31.8
2018-07-30T17:15:34.439Z,31.7
2018-07-30T17:20:34.368Z,31.7
2018-07-30T17:25:34.185Z,31.6
2018-07-30T17:30:34.066Z,31.6
2018-07-30T17:35:33.987Z,31.6
2018-07-30T17:40:33.781Z,31.6
2018-07-30T17:45:34.584Z,31.5
2018-07-30T17:50:34.510Z,31.5
2018-07-30T17:55:34.365Z,31.4
2018-07-30T18:00:34.197Z,31.4
2018-07-30T18:05:34.075Z,31.2
2018-07-30T18:10:34.161Z,31.2
2018-07-30T18:15:34.545Z,30.9
2018-07-30T18:20:34.397Z,30.9
2018-07-30T18:25:34.484Z,30.7
2018-07-30T18:30:34.356Z,30.7
2018-07-30T18:35:34.231Z,30.4
2018-07-30T18:40:34.059Z,30.4
2018-07-30T18:45:33.959Z,30.1
2018-07-30T18:50:34.758Z,30.1
2018-07-30T18:55:34.622Z,29.8
2018-07-30T19:00:34.436Z,29.8
2018-07-30T19:05:34.636Z,29.5
2018-07-30T19:10:34.786Z,29.5
2018-07-30T19:15:34.730Z,29.1
2018-07-30T19:20:34.594Z,29.1
2018-07-30T19:25:34.462Z,28.7
2018-07-30T19:30:33.897Z,28.7
2018-07-30T19:35:34.019Z,28.2
2018-07-30T19:40:34.970Z,28.2
2018-07-30T19:45:34.742Z,27.8
2018-07-30T19:50:34.461Z,27.8
2018-07-30T19:55:34.398Z,27.4
2018-07-30T20:00:34.162Z,27.4
2018-07-30T20:05:34.917Z,27.1
2018-07-30T20:10:34.731Z,27.1
2018-07-30T20:15:33.967Z,26.8
2018-07-30T20:20:34.847Z,26.8
2018-07-30T20:25:34.721Z,26.6
2018-07-30T20:30:34.537Z,26.6
2018-07-30T20:35:34.478Z,26.4
2018-07-30T20:40:34.463Z,26.4
2018-07-30T20:45:34.218Z,26.2
2018-07-30T20:50:34.157Z,26.2
2018-07-30T20:55:34.897Z,26.1
2018-07-30T21:00:34.676Z,26.1
2018-07-30T21:05:34.688Z,26.1
2018-07-30T21:10:34.524Z,26.1
2018-07-30T21:15:34.148Z,26
2018-07-30T21:20:34.985Z,26
2018-07-30T21:25:34.767Z,25.9
2018-07-30T21:30:34.616Z,25.9
2018-07-30T21:35:34.600Z,25.9
2018-07-30T21:40:34.446Z,25.9
2018-07-30T21:45:34.264Z,25.9
2018-07-30T21:50:34.169Z,25.9
2018-07-30T21:55:35.034Z,25.9
2018-07-30T22:00:34.866Z,25.9
2018-07-30T22:05:35.211Z,25.8
2018-07-30T22:10:34.304Z,25.8
2018-07-30T22:15:34.871Z,25.7
2018-07-30T22:20:34.773Z,25.7
2018-07-30T22:25:34.573Z,25.6
2018-07-30T22:30:34.407Z,25.6
2018-07-30T22:35:34.234Z,25.5
2018-07-30T22:40:34.976Z,25.5
2018-07-30T22:45:34.783Z,25.5
2018-07-30T22:50:34.639Z,25.5
2018-07-30T22:55:34.488Z,25.4
2018-07-30T23:00:34.390Z,25.4
2018-07-30T23:05:34.442Z,25.5
2018-07-30T23:10:34.340Z,25.5
2018-07-30T23:15:34.865Z,25.4
2018-07-30T23:20:34.662Z,25.4
2018-07-30T23:25:34.487Z,25.4
2018-07-30T23:30:34.192Z,25.4
2018-07-30T23:35:35.003Z,25.3
2018-07-30T23:40:34.734Z,25.3
2018-07-30T23:45:34.550Z,25.2
2018-07-30T23:50:34.319Z,25.2
2018-07-30T23:55:34.495Z,25
